AVIATION WEATHER REPORT

         

                                                                                                                                 GENERAL AVIATION FORECAST ST. MAARTEN

 

DATE ISSUED: April 27th, 2017 VALID TIME: 12:00 -24:00Z

AREA OF COVERAGE: TNCM TMA (Bounded by 18.25N 063.39W, 18.25N 062.51W, 17.47N 062.22W, 17.26N 062.53W, 17.36N 063.39W AND 18.25N 063.39W)

LEVELS OF COVERAGE: MSL TO FL100

 

SIG WX : VCSH

SIG. CLDS: FEW TCU 1800 – 2200 FT AND TOPS ABV FL100

SFC. VIS: 10+ KM

 
 
FCST WNDS/TEMP ALOFT: 27/18:00Z

 

LEVEL

WINDS

TEMP

0500 FT

090/15KT

+25

1000 FT

090/20KT

+23

2000 FT

090/20KT

+21

3000 FT

100/15KT

+18

FL050

110/10KT

+16

FL080

090/05KT

+11

FL100

000/00KT

+08

 
 

FZL: ABOVE FL100 SPECIAL FEATURES: NONE

TAF:

 

TNCM 271138Z 2712/2812 07011KT P6SM VCSH SCT018
  TEMPO 2712/2715 -SHRA BKN016
  FM271500 11012KT P6SM SCT020
  FM272300 07008KT P6SM FEW018

FORECASTER: ALBERT.

 

                                                         Meteorological Department St. Maarten

                  Airport Rd. # 69, Simpson Bay (1-721) 545-2024 or (1-721) 545-4226 Fax: (1-721) 545-2998
                                                        E-Mail: This email address is being protected from spambots. You need JavaScript enabled to view it.

 

TAFS:

TJSJ 271740Z 2718/2818 07012KT P6SM SCT025 SCT050 FM272300 09008KT P6SM SCT040
FM280100 12004KT P6SM FEW026
FM280900 10005KT P6SM VCSH SCT024

FM281400 08014KT P6SM FEW028 SCT045

TAF MDSD 271600Z 2718/2818 14010KT 9999 SCT020
PROB30 2718/2800 6000 -TSRA FEW016CB BKN018 BKN070 BECMG 2802/2806 04004KT

TAF MDPP 271600Z 2718/2818 12010KT FEW016CB BKN018 PROB40 2718/2800 7000 -TSRA FEW014CB BKN016 BKN070 BECMG 2802/2804 00000KT

TAF MTPP 271700Z 2718/2818 09015KT 9999 FEW026
PROB30 TEMPO 2720/2802 29008KT 4500 TSRA SCT024CB BKN040 BECMG 2806/2810 06005KT 7000 NSW FEW020
FM281300 10010KT 9999 FEW024

MKJP 271715Z 2718/2818 15020KT 9999 SCT018
PROB40 TEMPO 2719/2723 7000 SHRA SCT018 FEW020CB BECMG 2800/2802 13010KT FEW020
BECMG 2804/2806 35005KT
BECMG 2814/2816 14020KT

MKJS 271715Z 2718/2818 06015KT 9999 SCT018 SCT032 TEMPO 2719/2723 5000 SHRA BKN018 SCT020CB BECMG 2800/2802 13005KT FEW020 FEW022CB BECMG 2814/2816 07015KT SCT018

17.36N 63.40W and 18.30N 63.40W).
Levels of Coverage: MSL to FL100.
SIG WX: ISOL SHRA.
SIG CLDS: FEW TCU 1000 - 1500FT AND TOPS ABV FL100.
SCT/ BKN LYR SC/AC 2000 - 3500FT AND TOPS ABV FL100.
SFC VIS: 10+ KM, 3 - 7 KM IN SHRA.
FCST WNDS/TEMP ALOFT: 14/ 18:00Z
0500 FT.. 200/10KT +26 FL050.....220/10KT +16
1000 FT.. 200/10KT +24 FL080.....220/05KT +11
2000 FT.. 210/15KT +22 FL100.....200/10KT +08
3000 FT.. 210/15KT +19
FZL: ABV FL100.
SPECIAL FEATURES:
NONE.
TAFS:
TAF TNCM 141200Z 1412/1512 14012KT P6SM VCSH BKN018 BKN035
FM141800 21008KT P6SM VCSH SCT022 SCT050=
Forecaster: DJF.

Save

Save

Save

Save

Save

Save

Save

Save

Save

Save

Save

Save

Save

Save

Save

Save

Save

Save

Save

Save

Save

Save

Save

Save

Save

Save

Save

Save

Save

Save

Save

Save

Save

Save

Save

Save

Save

Save

Save

Save

Save

Save

Save

Save

Save

Save

Save

Save

Save

Save

Save

Save

Save

Save

Save

Save

Save

Save

Save

Save

Save

Save

Save

Save

Save

Save

Save

Save

Save

Save

Save

Save

Save

Save

Save

Save

Save

Save

Save

Save

Save

Save

Save

Save

Save

Save

Save

Save

Save

Save

Save

Save

Save

Save

Save

Save

Save

Save

Save

Save

Save

Save

Save

Save

Save

Save

Save

Save

Save

Save

Save

Save

Save

Save

Save

Save

Save

Save

Save

Save

Save

Save

Save

Save

Save

Save

Save

Save

Save

Save

Save

Save

Save

Save

Save

Save

Save

Save

Save

Download attachments:
Rate this item
(0 votes)

Add comment

Security code
Refresh

International News

Go to top